Time;durP1;ratioP1;P1;durP2;ratioP2;P2;SDS_P1;SDS_P2;PMS_P1;PMS_P2;Temp;Humidity;BMP_temperature;BMP_pressure;BME280_temperature;BME280_humidity;BME280_pressure;Samples;Min_cycle;Max_cycle;Signal;HPM_P1;HPM_P2
2023/03/23 00:01:26;;;;;;;6.70;6.20;;;;;;;13.04;57.09;96154.34;5095751;28;20196;-76
2023/03/23 00:03:56;;;;;;;6.50;6.10;;;;;;;13.00;57.29;96153.25;5077386;28;20303;-76
2023/03/23 00:06:23;;;;;;;6.97;6.63;;;;;;;13.07;57.43;96140.66;5091558;28;20186;-75
2023/03/23 00:08:55;;;;;;;6.93;6.53;;;;;;;13.08;57.33;96150.13;5095447;28;20192;-76
2023/03/23 00:11:22;;;;;;;8.23;7.73;;;;;;;13.02;57.97;96148.53;5096274;28;20172;-75
2023/03/23 00:13:51;;;;;;;9.83;9.33;;;;;;;13.04;58.04;96141.19;5094387;28;20192;-75
2023/03/23 00:16:18;;;;;;;12.77;12.00;;;;;;;13.02;58.25;96141.44;5063053;28;21006;-75
2023/03/23 00:18:52;;;;;;;13.20;12.47;;;;;;;12.92;58.85;96151.91;5075377;28;20595;-75
2023/03/23 00:21:18;;;;;;;17.27;16.33;;;;;;;13.00;58.73;96150.59;5075890;28;20193;-75
2023/03/23 00:23:44;;;;;;;21.80;20.40;;;;;;;13.10;58.66;96148.81;5076210;28;20199;-76
2023/03/23 00:26:10;;;;;;;29.60;27.97;;;;;;;13.08;58.58;96145.66;5074668;28;20221;-76
2023/03/23 00:28:38;;;;;;;42.80;40.43;;;;;;;13.11;58.36;96139.88;5075447;28;20264;-76
2023/03/23 00:31:06;;;;;;;46.47;43.97;;;;;;;13.07;58.65;96144.06;5074335;28;20264;-76
2023/03/23 00:33:37;;;;;;;48.40;45.73;;;;;;;13.03;58.22;96142.22;5076305;28;20260;-75
2023/03/23 00:36:03;;;;;;;56.80;53.80;;;;;;;12.95;58.67;96130.34;5075283;28;20181;-76
2023/03/23 00:38:29;;;;;;;65.07;61.63;;;;;;;12.95;58.60;96129.53;5075388;28;20178;-76
2023/03/23 00:40:54;;;;;;;104.20;98.70;;;;;;;12.98;58.76;96131.69;5074343;28;20212;-76
2023/03/23 00:43:20;;;;;;;128.53;121.83;;;;;;;12.88;59.27;96127.16;5080913;28;20271;-76
2023/03/23 00:45:52;;;;;;;112.60;106.63;;;;;;;12.76;59.88;96127.34;5095404;28;20180;-75
2023/03/23 00:48:21;;;;;;;109.90;104.20;;;;;;;12.79;59.99;96121.59;5095254;28;20246;-75
2023/03/23 00:50:47;;;;;;;96.43;91.50;;;;;;;12.80;60.23;96112.66;5095004;28;20267;-76
2023/03/23 00:53:13;;;;;;;86.40;81.70;;;;;;;12.72;60.39;96117.59;5093551;28;20264;-75
2023/03/23 00:55:41;;;;;;;63.80;60.50;;;;;;;12.63;60.95;96114.69;5086023;28;20173;-75
2023/03/23 00:58:06;;;;;;;44.00;41.30;;;;;;;12.55;61.35;96112.53;5074975;28;20747;-76
2023/03/23 01:00:31;;;;;;;27.43;25.93;;;;;;;12.50;61.81;96110.66;5075254;28;20204;-75
2023/03/23 01:02:57;;;;;;;16.10;15.30;;;;;;;12.46;61.87;96108.81;5077136;28;20833;-76
2023/03/23 01:05:22;;;;;;;8.50;7.93;;;;;;;12.55;61.96;96102.00;5075162;28;20537;-75
2023/03/23 01:07:48;;;;;;;7.83;7.33;;;;;;;12.52;62.17;96104.38;5074979;28;20713;-75
2023/03/23 01:10:17;;;;;;;10.80;10.13;;;;;;;12.49;62.15;96101.19;5074913;28;20193;-76
2023/03/23 01:12:44;;;;;;;11.50;10.90;;;;;;;12.57;62.21;96099.13;5075168;28;20254;-76
2023/03/23 01:15:15;;;;;;;12.70;12.03;;;;;;;12.56;62.11;96105.44;5076492;28;20638;-76
2023/03/23 01:17:42;;;;;;;11.33;10.63;;;;;;;12.54;61.82;96097.03;5075743;28;20200;-76
2023/03/23 01:20:08;;;;;;;12.17;11.43;;;;;;;12.49;61.68;96095.94;5074732;28;20205;-75
2023/03/23 01:22:34;;;;;;;11.77;11.10;;;;;;;12.46;61.69;96096.47;5074794;28;20242;-75
2023/03/23 01:24:59;;;;;;;9.93;9.43;;;;;;;12.42;61.92;96092.78;5092026;28;20620;-76
2023/03/23 01:27:25;;;;;;;9.97;9.37;;;;;;;12.53;61.30;96092.81;5074164;28;20248;-75
2023/03/23 01:29:50;;;;;;;8.23;7.73;;;;;;;12.53;61.14;96090.97;5074181;28;20185;-75
2023/03/23 01:32:16;;;;;;;7.50;7.00;;;;;;;12.53;60.95;96083.09;5073937;28;20546;-76
2023/03/23 01:34:41;;;;;;;7.93;7.53;;;;;;;12.58;60.52;96075.22;5085188;28;20613;-75
2023/03/23 01:37:06;;;;;;;8.27;7.73;;;;;;;12.58;60.57;96069.19;5074458;28;20182;-76
2023/03/23 01:39:32;;;;;;;9.23;8.70;;;;;;;12.62;60.46;96068.41;5057752;28;20265;-76
2023/03/23 01:41:57;;;;;;;8.23;7.83;;;;;;;12.62;60.51;96063.16;5094144;28;20621;-76
2023/03/23 01:44:22;;;;;;;8.97;8.50;;;;;;;12.61;60.65;96056.31;5066791;28;20189;-76
2023/03/23 01:46:48;;;;;;;10.53;9.93;;;;;;;12.50;61.13;96055.47;5086374;28;20181;-76
2023/03/23 01:49:19;;;;;;;9.57;9.07;;;;;;;12.58;61.11;96051.56;5091492;28;20662;-76
2023/03/23 01:52:06;;;;;;;11.07;10.47;;;;;;;12.61;60.91;96053.69;5074120;28;20169;-76
2023/03/23 01:54:34;;;;;;;12.27;11.60;;;;;;;12.60;60.89;96052.09;5074124;28;20307;-76
2023/03/23 01:57:03;;;;;;;12.33;11.73;;;;;;;12.47;61.47;96048.13;5090194;28;20187;-76
2023/03/23 01:59:31;;;;;;;11.07;10.47;;;;;;;12.52;61.33;96055.22;5090328;28;20644;-76
2023/03/23 02:01:57;;;;;;;11.40;10.63;;;;;;;12.62;61.26;96051.84;5081088;28;20208;-75
2023/03/23 02:04:24;;;;;;;10.13;9.43;;;;;;;12.57;61.29;96046.56;5093477;28;20615;-75
2023/03/23 02:06:52;;;;;;;10.17;8.40;;;;;;;12.51;61.55;96048.38;5077786;28;20220;-76
2023/03/23 02:09:19;;;;;;;9.13;8.60;;;;;;;12.45;61.80;96052.03;5073998;28;20223;-76
2023/03/23 02:11:45;;;;;;;9.47;8.97;;;;;;;12.47;62.20;96048.13;5079456;28;20314;-75
2023/03/23 02:14:11;;;;;;;7.63;7.23;;;;;;;12.58;61.87;96050.78;5093063;28;20196;-75
2023/03/23 02:16:43;;;;;;;5.37;4.97;;;;;;;12.48;62.36;96056.78;5073830;28;20177;-75
2023/03/23 02:19:14;;;;;;;4.20;4.00;;;;;;;12.51;62.67;96051.00;5093188;28;20191;-76
2023/03/23 02:21:58;;;;;;;4.23;3.97;;;;;;;12.52;62.95;96049.19;5057703;28;20533;-75
2023/03/23 02:24:51;;;;;;;4.33;4.10;;;;;;;12.41;63.50;96051.75;5059591;28;20205;-76
2023/03/23 02:27:26;;;;;;;5.27;4.80;;;;;;;12.37;63.75;96055.94;5064519;28;20221;-75
2023/03/23 02:30:08;;;;;;;6.13;5.83;;;;;;;12.31;64.38;96048.28;5073232;28;20180;-75
2023/03/23 02:32:43;;;;;;;6.87;6.37;;;;;;;12.35;64.19;96041.47;5058434;28;20181;-76
2023/03/23 02:35:19;;;;;;;7.33;6.93;;;;;;;12.46;63.52;96043.09;5087139;28;20645;-75
2023/03/23 02:38:11;;;;;;;5.70;5.33;;;;;;;12.48;63.24;96039.16;5067362;28;20184;-76
2023/03/23 02:40:41;;;;;;;5.80;5.53;;;;;;;12.50;63.43;96028.41;5088515;28;20673;-75
2023/03/23 02:43:10;;;;;;;6.27;5.77;;;;;;;12.55;62.96;96019.72;5092609;28;20358;-75
2023/03/23 02:45:38;;;;;;;5.40;5.00;;;;;;;12.54;63.19;96015.53;5091990;28;20189;-75
2023/03/23 02:48:07;;;;;;;4.50;3.93;;;;;;;12.61;62.92;96006.34;5093096;28;20192;-75
2023/03/23 02:50:35;;;;;;;4.27;4.07;;;;;;;12.55;63.60;96004.75;5093119;28;20185;-75
2023/03/23 02:53:03;;;;;;;4.90;4.60;;;;;;;12.44;64.05;96000.50;5077233;28;20195;-75
2023/03/23 02:55:30;;;;;;;4.90;4.50;;;;;;;12.40;64.58;96008.13;5088262;28;20180;-76
2023/03/23 02:57:56;;;;;;;4.80;4.50;;;;;;;12.54;64.43;96007.66;5089099;28;20504;-75
2023/03/23 03:00:22;;;;;;;5.10;4.70;;;;;;;12.50;65.05;96010.00;5072871;28;20198;-75
2023/03/23 03:02:52;;;;;;;6.87;6.57;;;;;;;12.46;65.59;96015.00;5058434;28;20235;-75
2023/03/23 03:05:32;;;;;;;9.57;8.97;;;;;;;12.44;65.85;96006.56;5091030;28;20179;-75
2023/03/23 03:08:32;;;;;;;9.90;9.33;;;;;;;12.34;66.12;96000.47;5087258;28;20180;-76
2023/03/23 03:11:11;;;;;;;7.70;7.00;;;;;;;12.39;66.51;95992.59;5073282;28;20185;-75
2023/03/23 03:14:00;;;;;;;6.47;6.10;;;;;;;12.38;66.56;95989.19;5072760;28;20169;-76
2023/03/23 03:16:49;;;;;;;6.23;5.83;;;;;;;12.30;66.72;95989.69;5072462;28;20252;-76
2023/03/23 03:19:32;;;;;;;6.47;6.07;;;;;;;12.23;67.08;95981.25;5054383;28;20196;-76
2023/03/23 03:21:59;;;;;;;6.93;6.50;;;;;;;12.24;67.54;95984.66;5072725;28;20185;-75
2023/03/23 03:24:28;;;;;;;6.50;6.20;;;;;;;12.17;67.85;95978.84;5092398;28;20177;-76
2023/03/23 03:26:57;;;;;;;6.30;5.90;;;;;;;12.27;67.54;95987.56;5075170;28;20575;-76
2023/03/23 03:29:33;;;;;;;6.90;6.40;;;;;;;12.17;68.26;95984.91;5072003;28;20185;-75
2023/03/23 03:32:04;;;;;;;5.77;5.37;;;;;;;12.18;68.73;95983.84;5088723;28;20180;-75
2023/03/23 03:34:32;;;;;;;6.33;5.80;;;;;;;12.29;68.69;95976.81;5091580;28;20583;-75
2023/03/23 03:36:59;;;;;;;5.90;5.60;;;;;;;12.17;69.06;95974.38;5080399;28;20209;-75
2023/03/23 03:39:25;;;;;;;5.80;4.73;;;;;;;12.20;69.53;95978.34;5072351;28;20200;-75
2023/03/23 03:41:51;;;;;;;4.83;4.43;;;;;;;12.10;69.45;95984.34;5074963;28;20232;-75
2023/03/23 03:44:16;;;;;;;4.57;4.30;;;;;;;12.07;69.96;95988.28;5072213;28;20177;-75
2023/03/23 03:46:41;;;;;;;5.10;4.60;;;;;;;12.11;70.17;95982.50;5072310;28;20190;-75
2023/03/23 03:49:10;;;;;;;5.20;4.90;;;;;;;12.15;70.11;95989.59;5072525;28;20205;-75
2023/03/23 03:51:35;;;;;;;5.77;5.37;;;;;;;12.14;70.15;95982.78;5073441;28;20223;-75
2023/03/23 03:54:01;;;;;;;5.77;5.47;;;;;;;12.07;70.46;95988.28;5072376;28;20181;-75
2023/03/23 03:56:27;;;;;;;6.07;5.57;;;;;;;12.06;70.33;95980.63;5073184;28;20230;-75
2023/03/23 03:58:53;;;;;;;6.00;5.70;;;;;;;12.09;70.41;95980.91;5054403;28;20561;-75
2023/03/23 04:01:22;;;;;;;6.60;6.10;;;;;;;12.08;70.46;95976.72;5081615;28;20201;-76
2023/03/23 04:03:48;;;;;;;6.93;6.37;;;;;;;12.06;70.87;95976.19;5092128;28;20180;-76
2023/03/23 04:06:14;;;;;;;7.10;6.70;;;;;;;12.12;71.16;95978.81;5093251;28;20259;-76
2023/03/23 04:08:41;;;;;;;6.67;6.27;;;;;;;11.99;71.43;95966.94;5091924;28;20181;-75
2023/03/23 04:11:07;;;;;;;6.10;5.70;;;;;;;11.98;71.12;95974.03;5083803;28;20285;-75
2023/03/23 04:13:33;;;;;;;6.70;6.23;;;;;;;12.10;71.13;95973.81;5077464;28;20204;-76
2023/03/23 04:15:58;;;;;;;6.83;6.27;;;;;;;12.02;71.21;95972.50;5080315;28;20678;-76
2023/03/23 04:18:24;;;;;;;7.43;6.97;;;;;;;12.16;69.93;95975.44;5075565;28;20224;-75
2023/03/23 04:20:50;;;;;;;9.33;8.83;;;;;;;12.20;69.20;95981.78;5075667;28;20204;-75
2023/03/23 04:23:19;;;;;;;8.83;8.37;;;;;;;12.37;68.48;95974.47;5075610;28;20189;-76
2023/03/23 04:25:46;;;;;;;7.27;6.87;;;;;;;12.46;67.55;95980.03;5078867;28;20312;-76
2023/03/23 04:28:12;;;;;;;6.87;6.47;;;;;;;12.50;67.31;95983.72;5057206;28;20219;-76
2023/03/23 04:30:38;;;;;;;6.80;6.40;;;;;;;12.52;66.82;95981.63;5081851;28;20220;-76
2023/03/23 04:33:03;;;;;;;6.53;6.23;;;;;;;12.57;66.93;95989.53;5075235;28;20192;-75
2023/03/23 04:35:30;;;;;;;8.60;8.10;;;;;;;12.65;66.69;95994.25;5082058;28;20187;-76
2023/03/23 04:37:56;;;;;;;8.87;8.37;;;;;;;12.71;65.95;95989.81;5094590;28;20188;-75
2023/03/23 04:40:22;;;;;;;10.83;10.23;;;;;;;12.68;66.01;95983.25;5094427;28;20294;-76
2023/03/23 04:42:50;;;;;;;11.27;10.60;;;;;;;12.82;65.36;95997.47;5094903;28;20507;-76
2023/03/23 04:45:21;;;;;;;12.53;11.73;;;;;;;12.80;65.39;95983.81;5087287;28;20551;-75
2023/03/23 04:47:52;;;;;;;13.53;12.83;;;;;;;12.77;65.65;95983.53;5067239;28;20205;-75
2023/03/23 04:50:21;;;;;;;14.67;13.67;;;;;;;12.83;65.19;95974.59;5057308;28;20563;-75
2023/03/23 04:52:47;;;;;;;15.07;14.27;;;;;;;12.86;65.29;95971.47;5075041;28;20177;-75
2023/03/23 04:55:13;;;;;;;17.23;16.20;;;;;;;12.89;65.01;95969.09;5082578;28;20181;-75
2023/03/23 04:57:39;;;;;;;17.23;16.23;;;;;;;12.93;64.86;95963.31;5074672;28;20181;-76
2023/03/23 05:00:08;;;;;;;20.40;19.33;;;;;;;12.88;64.58;95969.34;5075005;28;20270;-75
2023/03/23 05:02:36;;;;;;;18.80;17.80;;;;;;;12.91;64.64;95976.72;5074957;28;20185;-75
2023/03/23 05:05:01;;;;;;;17.00;16.03;;;;;;;13.02;64.30;95993.31;5056844;28;20534;-75
2023/03/23 05:07:26;;;;;;;13.13;12.43;;;;;;;13.04;64.33;95981.47;5075507;28;20173;-76
2023/03/23 05:09:52;;;;;;;13.10;12.43;;;;;;;12.98;64.48;95981.75;5081783;28;20196;-75
2023/03/23 05:12:17;;;;;;;12.07;11.37;;;;;;;12.98;64.61;95985.16;5091993;28;20172;-74
2023/03/23 05:14:43;;;;;;;10.80;10.20;;;;;;;13.03;64.30;95982.53;5074844;28;20181;-74
2023/03/23 05:17:08;;;;;;;10.77;10.07;;;;;;;12.99;64.47;95989.34;5075021;28;20173;-75
2023/03/23 05:19:35;;;;;;;9.97;9.37;;;;;;;13.03;64.61;95976.47;5078377;28;20188;-75
2023/03/23 05:22:03;;;;;;;9.00;8.53;;;;;;;12.91;64.94;95984.63;5094175;28;20195;-74
2023/03/23 05:24:32;;;;;;;7.67;7.10;;;;;;;12.95;65.03;95984.88;5069752;28;20181;-78
2023/03/23 05:27:03;;;;;;;7.17;6.67;;;;;;;13.00;64.66;95977.78;5072207;28;20308;-73
2023/03/23 05:29:30;;;;;;;6.73;6.43;;;;;;;13.03;64.66;95974.66;5056857;28;20263;-76
2023/03/23 05:31:59;;;;;;;7.13;6.63;;;;;;;12.98;64.65;95982.53;5073907;28;20264;-74
2023/03/23 05:34:26;;;;;;;6.07;5.77;;;;;;;12.94;65.13;95970.94;5076604;28;20205;-74
2023/03/23 05:36:53;;;;;;;5.97;5.63;;;;;;;13.05;64.66;95972.53;5074368;28;20188;-74
2023/03/23 05:39:19;;;;;;;5.33;4.80;;;;;;;13.13;64.50;95977.31;5089172;28;20232;-74
2023/03/23 05:41:44;;;;;;;5.33;5.03;;;;;;;13.13;64.39;95982.56;5093309;28;20680;-74
2023/03/23 05:44:10;;;;;;;4.43;4.20;;;;;;;13.09;64.56;95981.50;5088151;28;20196;-74
2023/03/23 05:46:35;;;;;;;4.63;4.30;;;;;;;13.06;65.12;95979.38;5085402;28;20629;-74
2023/03/23 05:49:00;;;;;;;4.57;4.17;;;;;;;13.03;65.20;95977.28;5075882;28;20642;-74
2023/03/23 05:51:26;;;;;;;4.50;4.20;;;;;;;13.08;64.69;95979.91;5094071;28;20267;-74
2023/03/23 05:53:52;;;;;;;4.03;3.83;;;;;;;12.98;65.33;95979.09;5089657;28;20652;-74
2023/03/23 05:56:17;;;;;;;3.57;3.37;;;;;;;13.01;65.11;95987.25;5068111;28;20764;-74
2023/03/23 05:58:43;;;;;;;4.67;4.33;;;;;;;13.10;65.11;95987.50;5073778;28;20542;-74
2023/03/23 06:01:09;;;;;;;4.40;4.10;;;;;;;13.13;64.85;95993.09;5074020;28;20646;-74
2023/03/23 06:03:35;;;;;;;4.27;3.97;;;;;;;13.18;64.67;95995.72;5056118;28;20215;-75
2023/03/23 06:06:02;;;;;;;4.37;4.07;;;;;;;13.28;64.33;95995.72;5079713;28;20216;-73
2023/03/23 06:08:28;;;;;;;4.50;4.20;;;;;;;13.25;64.63;96001.53;5093789;28;20177;-75
2023/03/23 06:10:55;;;;;;;4.37;4.07;;;;;;;13.29;64.64;96007.06;5093607;28;20199;-75
2023/03/23 06:13:20;;;;;;;4.97;4.50;;;;;;;13.40;64.38;96008.63;5075777;28;20211;-76
2023/03/23 06:15:46;;;;;;;4.70;4.40;;;;;;;13.43;63.82;96017.88;5071126;28;20173;-75
2023/03/23 06:18:12;;;;;;;4.37;4.07;;;;;;;13.43;64.59;96016.00;5090258;28;20181;-75
2023/03/23 06:20:38;;;;;;;4.13;3.93;;;;;;;13.50;63.92;96018.38;5089075;28;20201;-75
2023/03/23 06:23:04;;;;;;;5.03;4.80;;;;;;;13.44;64.19;96022.06;5093836;28;20192;-76
2023/03/23 06:25:30;;;;;;;4.40;3.97;;;;;;;13.39;64.23;96022.84;5091559;28;20196;-75
2023/03/23 06:27:55;;;;;;;6.50;6.20;;;;;;;13.49;63.63;96027.31;5060239;28;20239;-74
2023/03/23 06:30:21;;;;;;;7.03;6.63;;;;;;;13.41;63.99;96030.47;5073247;28;20268;-74
2023/03/23 06:32:47;;;;;;;11.30;10.50;;;;;;;13.43;63.59;96033.66;5084531;28;20208;-74
2023/03/23 06:35:13;;;;;;;9.17;8.47;;;;;;;13.41;63.80;96031.28;5072621;28;20189;-74
2023/03/23 06:37:40;;;;;;;8.47;8.07;;;;;;;13.40;63.69;96034.97;5084289;28;20189;-74
2023/03/23 06:40:06;;;;;;;7.97;7.47;;;;;;;13.30;64.06;96029.69;5091451;28;20221;-74
2023/03/23 06:42:32;;;;;;;7.17;6.77;;;;;;;13.35;63.70;96029.69;5092749;28;20241;-74
2023/03/23 06:45:00;;;;;;;6.90;5.97;;;;;;;13.41;63.54;96035.75;5089348;28;20178;-74
2023/03/23 06:47:26;;;;;;;6.00;4.33;;;;;;;13.34;63.79;96041.28;5083153;28;20184;-73
2023/03/23 06:49:51;;;;;;;4.60;4.30;;;;;;;13.30;63.91;96046.28;5082193;28;20190;-74
2023/03/23 06:52:17;;;;;;;6.33;4.00;;;;;;;13.41;63.73;96041.81;5072785;28;20189;-74
2023/03/23 06:54:43;;;;;;;4.47;4.17;;;;;;;13.48;63.77;96039.72;5073027;28;20221;-74
2023/03/23 06:57:08;;;;;;;6.43;6.00;;;;;;;13.68;63.15;96047.59;5079600;28;20188;-72
2023/03/23 06:59:34;;;;;;;11.67;10.83;;;;;;;13.76;63.23;96043.66;5075066;28;20188;-73
2023/03/23 07:02:00;;;;;;;7.27;6.77;;;;;;;14.07;62.28;96041.78;5093622;28;20199;-72
2023/03/23 07:04:25;;;;;;;5.80;5.40;;;;;;;14.24;61.77;96054.66;5090444;28;20181;-72
2023/03/23 07:06:51;;;;;;;6.33;5.80;;;;;;;14.24;63.10;96052.00;5092376;28;20707;-73
2023/03/23 07:09:16;;;;;;;7.50;6.90;;;;;;;14.36;62.29;96055.16;5092424;28;20217;-75
2023/03/23 07:11:41;;;;;;;4.17;3.97;;;;;;;14.25;61.75;96046.47;5074114;28;20180;-73
2023/03/23 07:14:07;;;;;;;3.20;3.00;;;;;;;14.22;61.88;96041.72;5064194;28;20189;-73
2023/03/23 07:16:32;;;;;;;3.50;3.20;;;;;;;14.08;62.38;96052.06;5086582;28;20487;-73
2023/03/23 07:18:59;;;;;;;3.00;2.80;;;;;;;14.30;61.25;96053.59;5092439;28;20647;-73
2023/03/23 07:21:25;;;;;;;3.67;3.37;;;;;;;14.12;61.65;96050.44;5074382;28;20545;-72
2023/03/23 07:23:50;;;;;;;4.03;3.20;;;;;;;14.23;61.00;96061.75;5085687;28;20250;-75
2023/03/23 07:26:16;;;;;;;3.10;2.90;;;;;;;14.22;60.88;96072.56;5090915;28;20569;-74
2023/03/23 07:28:42;;;;;;;3.30;2.97;;;;;;;14.16;61.23;96075.22;5083428;28;20288;-74
2023/03/23 07:31:10;;;;;;;3.93;3.70;;;;;;;14.08;61.62;96073.13;5072701;28;20264;-74
2023/03/23 07:33:35;;;;;;;4.17;3.97;;;;;;;14.04;61.89;96081.84;5078137;28;20180;-74
2023/03/23 07:36:02;;;;;;;5.50;4.23;;;;;;;14.07;61.49;96079.44;5091366;28;20210;-74
2023/03/23 07:38:28;;;;;;;5.00;4.60;;;;;;;14.18;61.46;96090.78;5091371;28;20188;-74
2023/03/23 07:40:54;;;;;;;12.80;11.80;;;;;;;14.53;87.08;96090.72;5088222;28;20196;-71
2023/03/23 07:43:20;;;;;;;9.90;9.30;;;;;;;14.54;69.85;96086.25;5085084;28;20184;-70
2023/03/23 07:45:45;;;;;;;5.57;5.27;;;;;;;14.54;61.42;96094.94;5094236;28;20180;-74
2023/03/23 07:48:11;;;;;;;6.03;5.63;;;;;;;14.35;61.75;96103.66;5091755;28;20184;-74
2023/03/23 07:50:37;;;;;;;8.03;7.63;;;;;;;14.48;61.41;96100.50;5095281;28;20181;-74
2023/03/23 07:53:03;;;;;;;9.60;9.07;;;;;;;14.57;60.63;96097.03;5079010;28;20635;-74
2023/03/23 07:55:28;;;;;;;8.23;7.73;;;;;;;14.69;60.20;96101.22;5057950;28;20323;-73
2023/03/23 07:57:54;;;;;;;12.17;11.37;;;;;;;14.76;60.19;96101.75;5058211;28;20178;-74
2023/03/23 08:00:23;;;;;;;20.27;19.23;;;;;;;14.92;59.42;96106.69;5073086;28;20192;-75
2023/03/23 08:02:51;;;;;;;22.67;21.42;;;;;;;15.17;58.64;96110.25;5081099;28;20207;-74
2023/03/23 08:05:17;;;;;;;17.43;16.47;;;;;;;15.30;58.46;96102.53;5079753;28;20181;-75
2023/03/23 08:07:44;;;;;;;12.83;12.00;;;;;;;15.06;59.28;96098.16;5095737;28;20625;-74
2023/03/23 08:10:11;;;;;;;11.35;10.77;;;;;;;14.90;60.34;96103.53;5087718;28;20186;-74
2023/03/23 08:12:38;;;;;;;13.23;12.38;;;;;;;14.92;60.97;96098.78;5075923;28;20272;-74
2023/03/23 08:15:06;;;;;;;14.10;13.37;;;;;;;14.90;61.24;96113.28;5075918;28;20188;-74
2023/03/23 08:17:32;;;;;;;21.97;20.57;;;;;;;14.91;61.51;96120.94;5075863;28;20307;-74
2023/03/23 08:19:57;;;;;;;21.33;19.93;;;;;;;14.97;61.32;96119.06;5075530;28;20296;-75
2023/03/23 08:22:23;;;;;;;20.30;19.25;;;;;;;15.02;61.44;96118.25;5075314;28;20705;-74
2023/03/23 08:24:48;;;;;;;17.65;16.67;;;;;;;15.08;61.17;96111.91;5067530;28;20185;-74
2023/03/23 08:27:14;;;;;;;19.20;18.20;;;;;;;15.11;61.42;96120.06;5094301;28;20252;-74
2023/03/23 08:29:40;;;;;;;13.65;12.95;;;;;;;15.25;60.55;96120.25;5075493;28;20560;-74
2023/03/23 08:32:06;;;;;;;12.35;11.52;;;;;;;15.50;60.55;96127.25;5075300;28;20181;-74
2023/03/23 08:34:32;;;;;;;11.00;10.27;;;;;;;15.69;59.67;96129.00;5076140;28;20574;-74
2023/03/23 08:36:57;;;;;;;10.15;9.45;;;;;;;15.71;59.75;96129.53;5074855;28;20222;-74
2023/03/23 08:39:24;;;;;;;8.35;7.90;;;;;;;15.72;59.66;96127.66;5085018;28;20180;-74
2023/03/23 08:41:49;;;;;;;5.63;5.20;;;;;;;15.75;60.31;96135.03;5088023;28;20698;-75
2023/03/23 08:44:15;;;;;;;6.65;6.13;;;;;;;15.56;60.68;96132.25;5065516;28;20188;-74
2023/03/23 08:46:41;;;;;;;7.20;6.80;;;;;;;15.59;61.37;96129.06;5075312;28;20260;-75
2023/03/23 08:49:06;;;;;;;4.57;4.18;;;;;;;15.34;62.21;96137.09;5086252;28;20201;-74
2023/03/23 08:51:32;;;;;;;5.15;4.85;;;;;;;15.28;63.02;96138.19;5076200;28;20189;-74
2023/03/23 08:53:58;;;;;;;12.60;11.80;;;;;;;15.15;64.01;96138.78;5079531;28;20549;-74
2023/03/23 08:56:24;;;;;;;24.40;23.10;;;;;;;15.25;64.14;96138.75;5094744;28;20629;-74
2023/03/23 08:58:49;;;;;;;10.32;9.73;;;;;;;15.42;63.39;96139.19;5095326;28;20181;-74
2023/03/23 09:01:15;;;;;;;4.60;4.13;;;;;;;15.35;63.87;96149.25;5094993;28;20197;-74
2023/03/23 09:03:40;;;;;;;3.85;3.65;;;;;;;15.27;64.41;96152.44;5075085;28;20196;-74
2023/03/23 09:06:08;;;;;;;7.80;7.30;;;;;;;15.32;64.26;96155.84;5067579;28;20197;-74
2023/03/23 09:08:35;;;;;;;7.78;7.38;;;;;;;15.58;63.23;96161.03;5090451;28;20185;-74
2023/03/23 09:11:06;;;;;;;4.47;4.07;;;;;;;15.74;62.94;96151.97;5087972;28;20657;-74
2023/03/23 09:13:32;;;;;;;10.65;10.10;;;;;;;15.92;62.51;96155.81;5094325;28;20581;-74
2023/03/23 09:15:58;;;;;;;11.15;10.57;;;;;;;16.21;61.43;96152.16;5090921;28;20183;-77
2023/03/23 09:18:24;;;;;;;6.85;6.03;;;;;;;16.23;61.03;96163.22;5083273;28;20605;-74
2023/03/23 09:20:50;;;;;;;6.38;5.88;;;;;;;16.16;61.42;96165.38;5074430;28;20209;-75
2023/03/23 09:23:16;;;;;;;6.93;6.43;;;;;;;16.07;61.40;96169.69;5081297;28;20181;-74
2023/03/23 09:25:42;;;;;;;5.68;5.28;;;;;;;16.05;61.64;96166.53;5079628;28;20223;-75
2023/03/23 09:28:08;;;;;;;5.13;4.82;;;;;;;16.16;61.38;96168.03;5082866;28;20630;-74
2023/03/23 09:30:36;;;;;;;4.72;4.43;;;;;;;16.25;61.48;96170.09;5074340;28;20181;-74
2023/03/23 09:33:03;;;;;;;7.50;7.00;;;;;;;16.40;60.83;96167.31;5087344;28;20189;-74
2023/03/23 09:35:29;;;;;;;7.53;7.15;;;;;;;16.30;61.33;96185.91;5077048;28;20213;-75
2023/03/23 09:37:55;;;;;;;6.78;6.43;;;;;;;16.43;60.81;96188.72;5076146;28;20189;-74
2023/03/23 09:40:23;;;;;;;7.30;6.82;;;;;;;16.37;60.95;96181.09;5085365;28;20749;-75
2023/03/23 09:43:20;;;;;;;5.38;4.88;;;;;;;15.88;61.83;96179.38;5082215;28;20323;-73
2023/03/23 09:46:03;;;;;;;3.58;3.28;;;;;;;15.82;62.73;96183.09;5076812;28;20177;-75
2023/03/23 09:48:43;;;;;;;4.72;4.40;;;;;;;15.79;62.82;96181.00;5090153;28;20637;-74
2023/03/23 09:51:32;;;;;;;11.07;10.48;;;;;;;15.93;62.84;96187.25;5082620;28;20184;-74
2023/03/23 09:54:04;;;;;;;7.32;6.93;;;;;;;16.07;61.94;96187.41;5094404;28;20161;-74
2023/03/23 09:56:32;;;;;;;5.13;4.72;;;;;;;15.96;61.75;96173.47;5077571;28;20220;-74
2023/03/23 09:59:13;;;;;;;6.70;6.35;;;;;;;15.83;62.44;96184.66;5073745;28;20217;-75
2023/03/23 10:01:46;;;;;;;6.25;5.68;;;;;;;15.86;61.83;96193.91;5073617;28;20189;-74
2023/03/23 10:04:31;;;;;;;6.88;6.57;;;;;;;15.87;62.00;96185.72;5075962;28;20193;-74
2023/03/23 10:07:08;;;;;;;7.88;7.47;;;;;;;15.72;62.84;96191.06;5069868;28;20625;-74
2023/03/23 10:09:35;;;;;;;20.60;19.50;;;;;;;16.07;62.42;96193.50;5055310;28;20656;-75
2023/03/23 10:12:21;;;;;;;6.63;6.30;;;;;;;16.18;61.71;96186.25;5092778;28;20247;-75
2023/03/23 10:15:02;;;;;;;5.22;4.82;;;;;;;16.09;62.41;96196.66;5093673;28;20200;-74
2023/03/23 10:18:00;;;;;;;4.80;4.45;;;;;;;16.32;61.51;96197.00;5093725;28;20177;-74
2023/03/23 10:20:35;;;;;;;4.88;4.47;;;;;;;16.21;61.84;96194.47;5082305;28;20221;-74
2023/03/23 10:23:05;;;;;;;5.07;4.55;;;;;;;16.66;60.98;96191.72;5091982;28;20180;-74
2023/03/23 10:25:36;;;;;;;7.00;6.50;;;;;;;17.02;59.44;96198.22;5075667;28;20220;-74
2023/03/23 10:28:05;;;;;;;6.40;6.00;;;;;;;17.03;59.76;96197.16;5081374;28;20173;-74
2023/03/23 10:30:35;;;;;;;14.25;13.38;;;;;;;16.80;60.13;96190.78;5092715;28;20187;-75
2023/03/23 10:33:08;;;;;;;9.57;9.07;;;;;;;16.83;59.93;96206.09;5092710;28;20540;-74
2023/03/23 10:36:01;;;;;;;73.95;69.90;;;;;;;17.08;59.69;96206.91;5092772;28;20385;-75
2023/03/23 10:38:34;;;;;;;14.73;13.85;;;;;;;17.10;59.00;96207.41;5084066;28;20207;-76
2023/03/23 10:41:09;;;;;;;14.50;13.80;;;;;;;16.85;60.08;96196.00;5080511;28;20208;-75
2023/03/23 10:43:35;;;;;;;21.70;20.60;;;;;;;17.00;60.35;96200.34;5075044;28;20208;-75
2023/03/23 10:46:04;;;;;;;22.08;20.77;;;;;;;16.86;60.16;96202.91;5081232;28;20181;-74
2023/03/23 10:48:33;;;;;;;6.90;6.50;;;;;;;16.68;60.87;96214.19;5073098;28;20181;-74
2023/03/23 10:51:02;;;;;;;4.05;3.85;;;;;;;16.99;60.57;96209.38;5066377;28;20207;-73
2023/03/23 10:53:43;;;;;;;6.93;6.43;;;;;;;16.54;61.03;96208.72;5093428;28;20180;-75
2023/03/23 10:56:26;;;;;;;10.32;9.73;;;;;;;16.79;60.65;96204.28;5093633;28;20547;-74
2023/03/23 10:58:51;;;;;;;8.75;8.30;;;;;;;16.94;60.39;96212.84;5083915;28;20625;-74
2023/03/23 11:01:20;;;;;;;18.17;17.25;;;;;;;17.37;59.28;96204.97;5085985;28;20210;-75
2023/03/23 11:03:50;;;;;;;22.58;21.40;;;;;;;17.41;58.97;96206.78;5091129;28;20238;-76
2023/03/23 11:06:22;;;;;;;18.77;17.63;;;;;;;17.29;59.11;96209.03;5073988;28;20197;-75
2023/03/23 11:09:11;;;;;;;15.32;14.38;;;;;;;17.37;58.19;96202.31;5088861;28;20199;-74
2023/03/23 11:11:42;;;;;;;18.65;17.70;;;;;;;17.21;58.94;96212.31;5090149;28;20200;-75
2023/03/23 11:14:27;;;;;;;23.23;21.98;;;;;;;17.15;59.77;96199.41;5077953;28;20199;-75
2023/03/23 11:16:55;;;;;;;15.98;15.18;;;;;;;17.14;59.52;96211.06;5071554;28;20177;-75
2023/03/23 11:19:46;;;;;;;7.60;7.10;;;;;;;16.86;60.87;96207.41;5072758;28;20557;-74
2023/03/23 11:22:24;;;;;;;7.35;6.85;;;;;;;16.72;60.75;96203.84;5067981;28;20193;-74
2023/03/23 11:24:53;;;;;;;8.40;8.00;;;;;;;16.80;60.79;96205.88;5076289;28;20200;-76
2023/03/23 11:27:19;;;;;;;17.20;16.25;;;;;;;16.83;62.46;96206.09;5079963;28;20224;-74
2023/03/23 11:30:07;;;;;;;11.07;10.38;;;;;;;16.84;64.97;96201.59;5083244;28;20191;-75
2023/03/23 11:32:32;;;;;;;23.42;22.17;;;;;;;16.84;62.95;96198.94;5090355;28;20230;-75
2023/03/23 11:35:00;;;;;;;12.20;11.45;;;;;;;16.48;64.43;96206.41;5091098;28;20196;-75